sensor_id;sensor_type;location;lat;lon;timestamp;temperature;humidity
9762;DHT22;4920;49.594;11.022;2023-04-30T00:00:56;11.20;99.90
9762;DHT22;4920;49.594;11.022;2023-04-30T00:03:25;11.20;99.90
9762;DHT22;4920;49.594;11.022;2023-04-30T00:05:54;11.20;99.90
9762;DHT22;4920;49.594;11.022;2023-04-30T00:08:23;11.20;99.90
9762;DHT22;4920;49.594;11.022;2023-04-30T00:10:53;11.20;99.90
9762;DHT22;4920;49.594;11.022;2023-04-30T00:13:21;11.10;99.90
9762;DHT22;4920;49.594;11.022;2023-04-30T00:15:50;11.10;99.90
9762;DHT22;4920;49.594;11.022;2023-04-30T00:18:20;11.10;99.90
9762;DHT22;4920;49.594;11.022;2023-04-30T00:20:49;11.10;99.90
9762;DHT22;4920;49.594;11.022;2023-04-30T00:23:19;11.10;99.90
9762;DHT22;4920;49.594;11.022;2023-04-30T00:25:48;11.10;99.90
9762;DHT22;4920;49.594;11.022;2023-04-30T00:28:17;11.10;99.90
9762;DHT22;4920;49.594;11.022;2023-04-30T00:30:45;11.00;99.90
9762;DHT22;4920;49.594;11.022;2023-04-30T00:33:14;11.00;99.90
9762;DHT22;4920;49.594;11.022;2023-04-30T00:35:45;11.00;99.90
9762;DHT22;4920;49.594;11.022;2023-04-30T00:38:14;11.00;99.90
9762;DHT22;4920;49.594;11.022;2023-04-30T00:40:43;11.00;99.90
9762;DHT22;4920;49.594;11.022;2023-04-30T00:43:12;11.00;99.90
9762;DHT22;4920;49.594;11.022;2023-04-30T00:45:41;11.00;99.90
9762;DHT22;4920;49.594;11.022;2023-04-30T00:48:10;11.00;99.90
9762;DHT22;4920;49.594;11.022;2023-04-30T00:50:39;10.90;99.90
9762;DHT22;4920;49.594;11.022;2023-04-30T00:53:11;10.90;99.90
9762;DHT22;4920;49.594;11.022;2023-04-30T00:55:40;10.90;99.90
9762;DHT22;4920;49.594;11.022;2023-04-30T00:58:09;10.90;99.90
9762;DHT22;4920;49.594;11.022;2023-04-30T01:00:38;10.90;99.90
9762;DHT22;4920;49.594;11.022;2023-04-30T01:03:09;10.90;99.90
9762;DHT22;4920;49.594;11.022;2023-04-30T01:05:38;10.90;99.90
9762;DHT22;4920;49.594;11.022;2023-04-30T01:08:07;11.00;99.90
9762;DHT22;4920;49.594;11.022;2023-04-30T01:10:43;11.00;99.90
9762;DHT22;4920;49.594;11.022;2023-04-30T01:13:19;10.90;99.90
9762;DHT22;4920;49.594;11.022;2023-04-30T01:15:56;10.90;99.90
9762;DHT22;4920;49.594;11.022;2023-04-30T01:18:30;10.90;99.90
9762;DHT22;4920;49.594;11.022;2023-04-30T01:21:03;10.80;99.90
9762;DHT22;4920;49.594;11.022;2023-04-30T01:23:46;10.80;99.90
9762;DHT22;4920;49.594;11.022;2023-04-30T01:26:28;10.80;99.90
9762;DHT22;4920;49.594;11.022;2023-04-30T01:29:02;10.80;99.90
9762;DHT22;4920;49.594;11.022;2023-04-30T01:31:32;10.80;99.90
9762;DHT22;4920;49.594;11.022;2023-04-30T01:34:01;10.90;99.90
9762;DHT22;4920;49.594;11.022;2023-04-30T01:36:48;10.80;99.90
9762;DHT22;4920;49.594;11.022;2023-04-30T01:39:38;10.80;99.90
9762;DHT22;4920;49.594;11.022;2023-04-30T01:42:12;10.80;99.90
9762;DHT22;4920;49.594;11.022;2023-04-30T01:44:57;10.80;99.90
9762;DHT22;4920;49.594;11.022;2023-04-30T01:47:35;10.70;99.90
9762;DHT22;4920;49.594;11.022;2023-04-30T01:50:23;10.70;99.90
9762;DHT22;4920;49.594;11.022;2023-04-30T01:52:54;10.70;99.90
9762;DHT22;4920;49.594;11.022;2023-04-30T01:55:29;10.70;99.90
9762;DHT22;4920;49.594;11.022;2023-04-30T01:57:59;10.70;99.90
9762;DHT22;4920;49.594;11.022;2023-04-30T02:00:30;10.70;99.90
9762;DHT22;4920;49.594;11.022;2023-04-30T02:02:59;10.60;99.90
9762;DHT22;4920;49.594;11.022;2023-04-30T02:05:29;10.70;99.90
9762;DHT22;4920;49.594;11.022;2023-04-30T02:07:59;10.60;99.90
9762;DHT22;4920;49.594;11.022;2023-04-30T02:10:28;10.60;99.90
9762;DHT22;4920;49.594;11.022;2023-04-30T02:12:57;10.60;99.90
9762;DHT22;4920;49.594;11.022;2023-04-30T02:15:26;10.60;99.90
9762;DHT22;4920;49.594;11.022;2023-04-30T02:17:56;10.70;99.90
9762;DHT22;4920;49.594;11.022;2023-04-30T02:20:26;10.60;99.90
9762;DHT22;4920;49.594;11.022;2023-04-30T02:22:55;10.70;99.90
9762;DHT22;4920;49.594;11.022;2023-04-30T02:25:24;10.70;99.90
9762;DHT22;4920;49.594;11.022;2023-04-30T02:27:53;10.60;99.90
9762;DHT22;4920;49.594;11.022;2023-04-30T02:30:22;10.70;99.90
9762;DHT22;4920;49.594;11.022;2023-04-30T02:32:51;10.60;99.90
9762;DHT22;4920;49.594;11.022;2023-04-30T02:35:21;10.60;99.90
9762;DHT22;4920;49.594;11.022;2023-04-30T02:37:50;10.60;99.90
9762;DHT22;4920;49.594;11.022;2023-04-30T02:40:18;10.60;99.90
9762;DHT22;4920;49.594;11.022;2023-04-30T02:42:47;10.60;99.90
9762;DHT22;4920;49.594;11.022;2023-04-30T02:45:16;10.50;99.90
9762;DHT22;4920;49.594;11.022;2023-04-30T02:47:45;10.50;99.90
9762;DHT22;4920;49.594;11.022;2023-04-30T02:50:15;10.50;99.90
9762;DHT22;4920;49.594;11.022;2023-04-30T02:52:45;10.40;99.90
9762;DHT22;4920;49.594;11.022;2023-04-30T02:55:14;10.40;99.90
9762;DHT22;4920;49.594;11.022;2023-04-30T02:57:43;10.40;99.90
9762;DHT22;4920;49.594;11.022;2023-04-30T03:00:12;10.40;99.90
9762;DHT22;4920;49.594;11.022;2023-04-30T03:02:41;10.40;99.90
9762;DHT22;4920;49.594;11.022;2023-04-30T03:05:10;10.30;99.90
9762;DHT22;4920;49.594;11.022;2023-04-30T03:07:39;10.40;99.90
9762;DHT22;4920;49.594;11.022;2023-04-30T03:10:10;10.30;99.90
9762;DHT22;4920;49.594;11.022;2023-04-30T03:12:39;10.30;99.90
9762;DHT22;4920;49.594;11.022;2023-04-30T03:15:08;10.30;99.90
9762;DHT22;4920;49.594;11.022;2023-04-30T03:17:37;10.30;99.90
9762;DHT22;4920;49.594;11.022;2023-04-30T03:20:10;10.30;99.90
9762;DHT22;4920;49.594;11.022;2023-04-30T03:23:35;10.30;99.90
9762;DHT22;4920;49.594;11.022;2023-04-30T03:26:06;10.30;99.90
9762;DHT22;4920;49.594;11.022;2023-04-30T03:28:35;10.30;99.90
9762;DHT22;4920;49.594;11.022;2023-04-30T03:31:04;10.30;99.90
9762;DHT22;4920;49.594;11.022;2023-04-30T03:33:32;10.30;99.90
9762;DHT22;4920;49.594;11.022;2023-04-30T03:36:01;10.30;99.90
9762;DHT22;4920;49.594;11.022;2023-04-30T03:38:30;10.30;99.90
9762;DHT22;4920;49.594;11.022;2023-04-30T03:40:59;10.40;99.90
9762;DHT22;4920;49.594;11.022;2023-04-30T03:43:32;10.30;99.90
9762;DHT22;4920;49.594;11.022;2023-04-30T03:46:01;10.40;99.90
9762;DHT22;4920;49.594;11.022;2023-04-30T03:48:30;10.40;99.90
9762;DHT22;4920;49.594;11.022;2023-04-30T03:50:59;10.30;99.90
9762;DHT22;4920;49.594;11.022;2023-04-30T03:53:28;10.40;99.90
9762;DHT22;4920;49.594;11.022;2023-04-30T03:55:58;10.30;99.90
9762;DHT22;4920;49.594;11.022;2023-04-30T03:58:27;10.30;99.90
9762;DHT22;4920;49.594;11.022;2023-04-30T04:00:58;10.30;99.90
9762;DHT22;4920;49.594;11.022;2023-04-30T04:03:26;10.30;99.90
9762;DHT22;4920;49.594;11.022;2023-04-30T04:05:55;10.30;99.90
9762;DHT22;4920;49.594;11.022;2023-04-30T04:08:39;10.30;99.90
9762;DHT22;4920;49.594;11.022;2023-04-30T04:11:09;10.40;99.90
9762;DHT22;4920;49.594;11.022;2023-04-30T04:13:38;10.40;99.90
9762;DHT22;4920;49.594;11.022;2023-04-30T04:16:07;10.30;99.90
9762;DHT22;4920;49.594;11.022;2023-04-30T04:18:36;10.40;99.90
9762;DHT22;4920;49.594;11.022;2023-04-30T04:21:05;10.40;99.90
9762;DHT22;4920;49.594;11.022;2023-04-30T04:23:34;10.40;99.90
9762;DHT22;4920;49.594;11.022;2023-04-30T04:26:04;10.50;99.90
9762;DHT22;4920;49.594;11.022;2023-04-30T04:28:33;10.50;99.90
9762;DHT22;4920;49.594;11.022;2023-04-30T04:31:03;10.50;99.90
9762;DHT22;4920;49.594;11.022;2023-04-30T04:33:32;10.60;99.90
9762;DHT22;4920;49.594;11.022;2023-04-30T04:36:01;10.50;99.90
9762;DHT22;4920;49.594;11.022;2023-04-30T04:38:29;10.60;99.90
9762;DHT22;4920;49.594;11.022;2023-04-30T04:40:59;10.60;99.90
9762;DHT22;4920;49.594;11.022;2023-04-30T04:43:29;10.60;99.90
9762;DHT22;4920;49.594;11.022;2023-04-30T04:45:57;10.70;99.90
9762;DHT22;4920;49.594;11.022;2023-04-30T04:48:26;10.70;99.90
9762;DHT22;4920;49.594;11.022;2023-04-30T04:50:55;10.70;99.90
9762;DHT22;4920;49.594;11.022;2023-04-30T04:53:24;10.70;99.90
9762;DHT22;4920;49.594;11.022;2023-04-30T04:55:53;10.70;99.90
9762;DHT22;4920;49.594;11.022;2023-04-30T04:58:22;10.70;99.90
9762;DHT22;4920;49.594;11.022;2023-04-30T05:00:53;10.70;99.90
9762;DHT22;4920;49.594;11.022;2023-04-30T05:03:21;10.60;99.90
9762;DHT22;4920;49.594;11.022;2023-04-30T05:05:51;10.70;99.90
9762;DHT22;4920;49.594;11.022;2023-04-30T05:08:20;10.60;99.90
9762;DHT22;4920;49.594;11.022;2023-04-30T05:10:48;10.60;99.90
9762;DHT22;4920;49.594;11.022;2023-04-30T05:13:17;10.60;99.90
9762;DHT22;4920;49.594;11.022;2023-04-30T05:15:48;10.60;99.90
9762;DHT22;4920;49.594;11.022;2023-04-30T05:18:18;10.60;99.90
9762;DHT22;4920;49.594;11.022;2023-04-30T05:20:47;10.60;99.90
9762;DHT22;4920;49.594;11.022;2023-04-30T05:23:16;10.60;99.90
9762;DHT22;4920;49.594;11.022;2023-04-30T05:25:45;10.60;99.90
9762;DHT22;4920;49.594;11.022;2023-04-30T05:28:14;10.60;99.90
9762;DHT22;4920;49.594;11.022;2023-04-30T05:30:43;10.80;99.90
9762;DHT22;4920;49.594;11.022;2023-04-30T05:33:11;10.90;99.90
9762;DHT22;4920;49.594;11.022;2023-04-30T05:35:42;11.10;99.90
9762;DHT22;4920;49.594;11.022;2023-04-30T05:38:10;11.30;99.90
9762;DHT22;4920;49.594;11.022;2023-04-30T05:40:40;11.60;99.90
9762;DHT22;4920;49.594;11.022;2023-04-30T05:43:08;11.80;99.90
9762;DHT22;4920;49.594;11.022;2023-04-30T05:45:37;11.80;99.90
9762;DHT22;4920;49.594;11.022;2023-04-30T05:48:06;11.60;99.90
9762;DHT22;4920;49.594;11.022;2023-04-30T05:50:35;11.50;99.90
9762;DHT22;4920;49.594;11.022;2023-04-30T05:53:05;11.40;99.90
9762;DHT22;4920;49.594;11.022;2023-04-30T05:55:34;11.40;99.90
9762;DHT22;4920;49.594;11.022;2023-04-30T05:58:03;11.40;99.90
9762;DHT22;4920;49.594;11.022;2023-04-30T06:00:32;11.50;99.90
9762;DHT22;4920;49.594;11.022;2023-04-30T06:03:02;11.70;99.90
9762;DHT22;4920;49.594;11.022;2023-04-30T06:05:31;11.80;99.90
9762;DHT22;4920;49.594;11.022;2023-04-30T06:08:00;12.10;99.90
9762;DHT22;4920;49.594;11.022;2023-04-30T06:10:30;12.30;99.90
9762;DHT22;4920;49.594;11.022;2023-04-30T06:12:59;12.50;99.90
9762;DHT22;4920;49.594;11.022;2023-04-30T06:15:27;12.80;99.90
9762;DHT22;4920;49.594;11.022;2023-04-30T06:17:57;13.00;99.90
9762;DHT22;4920;49.594;11.022;2023-04-30T06:20:26;13.20;99.90
9762;DHT22;4920;49.594;11.022;2023-04-30T06:22:54;13.40;99.90
9762;DHT22;4920;49.594;11.022;2023-04-30T06:25:23;13.50;99.90
9762;DHT22;4920;49.594;11.022;2023-04-30T06:27:54;13.40;99.90
9762;DHT22;4920;49.594;11.022;2023-04-30T06:30:26;13.20;99.90
9762;DHT22;4920;49.594;11.022;2023-04-30T06:32:56;13.20;99.90
9762;DHT22;4920;49.594;11.022;2023-04-30T06:35:25;13.10;99.90
9762;DHT22;4920;49.594;11.022;2023-04-30T06:37:54;13.00;99.90
9762;DHT22;4920;49.594;11.022;2023-04-30T06:40:22;13.00;99.90
9762;DHT22;4920;49.594;11.022;2023-04-30T06:42:51;12.90;99.90
9762;DHT22;4920;49.594;11.022;2023-04-30T06:45:22;12.90;99.90
9762;DHT22;4920;49.594;11.022;2023-04-30T06:47:51;12.90;99.90
9762;DHT22;4920;49.594;11.022;2023-04-30T06:50:19;12.80;99.90
9762;DHT22;4920;49.594;11.022;2023-04-30T06:52:48;12.80;99.90
9762;DHT22;4920;49.594;11.022;2023-04-30T06:55:17;12.80;99.90
9762;DHT22;4920;49.594;11.022;2023-04-30T06:57:46;12.80;99.90
9762;DHT22;4920;49.594;11.022;2023-04-30T07:00:17;12.80;99.90
9762;DHT22;4920;49.594;11.022;2023-04-30T07:02:47;12.90;99.90
9762;DHT22;4920;49.594;11.022;2023-04-30T07:05:18;12.90;99.90
9762;DHT22;4920;49.594;11.022;2023-04-30T07:07:47;12.90;99.90
9762;DHT22;4920;49.594;11.022;2023-04-30T07:10:16;13.00;99.90
9762;DHT22;4920;49.594;11.022;2023-04-30T07:12:45;13.00;99.90
9762;DHT22;4920;49.594;11.022;2023-04-30T07:15:14;13.10;99.90
9762;DHT22;4920;49.594;11.022;2023-04-30T07:17:42;13.10;99.90
9762;DHT22;4920;49.594;11.022;2023-04-30T07:20:13;13.20;99.90
9762;DHT22;4920;49.594;11.022;2023-04-30T07:22:43;13.30;99.90
9762;DHT22;4920;49.594;11.022;2023-04-30T07:25:12;13.50;99.90
9762;DHT22;4920;49.594;11.022;2023-04-30T07:27:41;13.50;99.90
9762;DHT22;4920;49.594;11.022;2023-04-30T07:30:11;13.60;99.90
9762;DHT22;4920;49.594;11.022;2023-04-30T07:32:40;13.60;99.90
9762;DHT22;4920;49.594;11.022;2023-04-30T07:35:09;13.70;99.90
9762;DHT22;4920;49.594;11.022;2023-04-30T07:37:40;13.80;99.90
9762;DHT22;4920;49.594;11.022;2023-04-30T07:40:11;13.90;99.90
9762;DHT22;4920;49.594;11.022;2023-04-30T07:42:54;14.00;99.90
9762;DHT22;4920;49.594;11.022;2023-04-30T07:45:23;14.00;99.90
9762;DHT22;4920;49.594;11.022;2023-04-30T07:47:52;14.00;99.90
9762;DHT22;4920;49.594;11.022;2023-04-30T07:50:21;14.00;99.90
9762;DHT22;4920;49.594;11.022;2023-04-30T07:52:51;14.00;99.90
9762;DHT22;4920;49.594;11.022;2023-04-30T07:55:20;13.90;99.90
9762;DHT22;4920;49.594;11.022;2023-04-30T07:57:48;14.00;99.90
9762;DHT22;4920;49.594;11.022;2023-04-30T08:00:17;14.10;99.90
9762;DHT22;4920;49.594;11.022;2023-04-30T08:02:46;14.10;99.90
9762;DHT22;4920;49.594;11.022;2023-04-30T08:05:16;14.10;99.90
9762;DHT22;4920;49.594;11.022;2023-04-30T08:07:44;14.20;99.90
9762;DHT22;4920;49.594;11.022;2023-04-30T08:10:14;14.40;99.90
9762;DHT22;4920;49.594;11.022;2023-04-30T08:12:43;14.60;99.90
9762;DHT22;4920;49.594;11.022;2023-04-30T08:15:12;14.90;99.90
9762;DHT22;4920;49.594;11.022;2023-04-30T08:17:41;15.10;99.90
9762;DHT22;4920;49.594;11.022;2023-04-30T08:20:11;15.20;99.90
9762;DHT22;4920;49.594;11.022;2023-04-30T08:22:40;15.30;99.90
9762;DHT22;4920;49.594;11.022;2023-04-30T08:25:10;15.40;99.90
9762;DHT22;4920;49.594;11.022;2023-04-30T08:27:40;15.40;99.90
9762;DHT22;4920;49.594;11.022;2023-04-30T08:30:10;15.40;99.90
9762;DHT22;4920;49.594;11.022;2023-04-30T08:32:38;15.40;99.90
9762;DHT22;4920;49.594;11.022;2023-04-30T08:35:08;15.60;99.90
9762;DHT22;4920;49.594;11.022;2023-04-30T08:37:37;15.80;99.90
9762;DHT22;4920;49.594;11.022;2023-04-30T08:40:07;16.00;99.90
9762;DHT22;4920;49.594;11.022;2023-04-30T08:42:43;16.10;99.90
9762;DHT22;4920;49.594;11.022;2023-04-30T08:45:13;16.20;99.90
9762;DHT22;4920;49.594;11.022;2023-04-30T08:47:43;16.00;99.90
9762;DHT22;4920;49.594;11.022;2023-04-30T08:50:12;15.90;99.90
9762;DHT22;4920;49.594;11.022;2023-04-30T08:52:41;15.70;99.90
9762;DHT22;4920;49.594;11.022;2023-04-30T08:55:11;15.60;99.90
9762;DHT22;4920;49.594;11.022;2023-04-30T08:57:39;15.60;99.90
9762;DHT22;4920;49.594;11.022;2023-04-30T09:00:11;15.60;99.90
9762;DHT22;4920;49.594;11.022;2023-04-30T09:02:40;15.70;99.90
9762;DHT22;4920;49.594;11.022;2023-04-30T09:05:10;15.80;98.10
9762;DHT22;4920;49.594;11.022;2023-04-30T09:07:40;15.90;99.20
9762;DHT22;4920;49.594;11.022;2023-04-30T09:10:31;16.00;97.90
9762;DHT22;4920;49.594;11.022;2023-04-30T09:13:03;16.10;97.00
9762;DHT22;4920;49.594;11.022;2023-04-30T09:15:34;16.30;98.80
9762;DHT22;4920;49.594;11.022;2023-04-30T09:18:08;16.50;98.40
9762;DHT22;4920;49.594;11.022;2023-04-30T09:20:52;16.50;95.70
9762;DHT22;4920;49.594;11.022;2023-04-30T09:23:21;16.50;94.80
9762;DHT22;4920;49.594;11.022;2023-04-30T09:25:50;16.30;95.40
9762;DHT22;4920;49.594;11.022;2023-04-30T09:28:19;16.30;95.90
9762;DHT22;4920;49.594;11.022;2023-04-30T09:30:55;16.30;95.60
9762;DHT22;4920;49.594;11.022;2023-04-30T09:33:24;16.30;96.20
9762;DHT22;4920;49.594;11.022;2023-04-30T09:35:53;16.30;96.20
9762;DHT22;4920;49.594;11.022;2023-04-30T09:38:26;16.30;95.30
9762;DHT22;4920;49.594;11.022;2023-04-30T09:40:57;16.40;95.70
9762;DHT22;4920;49.594;11.022;2023-04-30T09:43:26;16.60;96.20
9762;DHT22;4920;49.594;11.022;2023-04-30T09:45:58;16.90;97.00
9762;DHT22;4920;49.594;11.022;2023-04-30T09:48:27;17.30;94.90
9762;DHT22;4920;49.594;11.022;2023-04-30T09:50:56;17.50;94.60
9762;DHT22;4920;49.594;11.022;2023-04-30T09:53:25;17.50;94.10
9762;DHT22;4920;49.594;11.022;2023-04-30T09:55:57;17.50;93.40
9762;DHT22;4920;49.594;11.022;2023-04-30T09:58:30;17.60;93.90
9762;DHT22;4920;49.594;11.022;2023-04-30T10:01:04;17.60;94.00
9762;DHT22;4920;49.594;11.022;2023-04-30T10:03:34;17.70;94.20
9762;DHT22;4920;49.594;11.022;2023-04-30T10:06:04;17.90;93.00
9762;DHT22;4920;49.594;11.022;2023-04-30T10:08:38;18.00;92.70
9762;DHT22;4920;49.594;11.022;2023-04-30T10:11:08;18.10;92.60
9762;DHT22;4920;49.594;11.022;2023-04-30T10:13:42;18.20;92.80
9762;DHT22;4920;49.594;11.022;2023-04-30T10:16:23;18.20;91.90
9762;DHT22;4920;49.594;11.022;2023-04-30T10:18:57;18.00;91.40
9762;DHT22;4920;49.594;11.022;2023-04-30T10:21:27;17.90;92.00
9762;DHT22;4920;49.594;11.022;2023-04-30T10:23:56;18.00;92.30
9762;DHT22;4920;49.594;11.022;2023-04-30T10:26:26;18.30;91.80
9762;DHT22;4920;49.594;11.022;2023-04-30T10:28:56;18.70;91.40
9762;DHT22;4920;49.594;11.022;2023-04-30T10:31:28;19.00;89.20
9762;DHT22;4920;49.594;11.022;2023-04-30T10:34:04;19.20;87.70
9762;DHT22;4920;49.594;11.022;2023-04-30T10:36:39;19.50;87.20
9762;DHT22;4920;49.594;11.022;2023-04-30T10:39:11;19.40;85.80
9762;DHT22;4920;49.594;11.022;2023-04-30T10:41:44;19.30;84.20
9762;DHT22;4920;49.594;11.022;2023-04-30T10:44:14;19.40;85.30
9762;DHT22;4920;49.594;11.022;2023-04-30T10:46:57;19.70;84.80
9762;DHT22;4920;49.594;11.022;2023-04-30T10:49:27;20.00;85.10
9762;DHT22;4920;49.594;11.022;2023-04-30T10:51:58;19.90;81.70
9762;DHT22;4920;49.594;11.022;2023-04-30T10:54:36;19.60;79.90
9762;DHT22;4920;49.594;11.022;2023-04-30T10:57:10;19.30;82.10
9762;DHT22;4920;49.594;11.022;2023-04-30T10:59:50;19.10;83.40
9762;DHT22;4920;49.594;11.022;2023-04-30T11:02:21;19.00;81.50
9762;DHT22;4920;49.594;11.022;2023-04-30T11:05:17;18.80;81.40
9762;DHT22;4920;49.594;11.022;2023-04-30T11:07:47;18.60;81.20
9762;DHT22;4920;49.594;11.022;2023-04-30T11:10:20;18.50;80.70
9762;DHT22;4920;49.594;11.022;2023-04-30T11:12:50;18.40;79.50
9762;DHT22;4920;49.594;11.022;2023-04-30T11:15:20;18.20;80.20
9762;DHT22;4920;49.594;11.022;2023-04-30T11:17:56;18.20;78.40
9762;DHT22;4920;49.594;11.022;2023-04-30T11:20:26;18.10;77.40
9762;DHT22;4920;49.594;11.022;2023-04-30T11:23:08;18.20;79.10
9762;DHT22;4920;49.594;11.022;2023-04-30T11:25:42;18.50;80.00
9762;DHT22;4920;49.594;11.022;2023-04-30T11:28:13;18.70;78.80
9762;DHT22;4920;49.594;11.022;2023-04-30T11:30:51;18.70;78.30
9762;DHT22;4920;49.594;11.022;2023-04-30T11:33:23;18.60;77.30
9762;DHT22;4920;49.594;11.022;2023-04-30T11:35:52;18.70;78.40
9762;DHT22;4920;49.594;11.022;2023-04-30T11:38:25;19.00;75.00
9762;DHT22;4920;49.594;11.022;2023-04-30T11:40:55;19.50;74.30
9762;DHT22;4920;49.594;11.022;2023-04-30T11:43:25;19.90;74.40
9762;DHT22;4920;49.594;11.022;2023-04-30T11:46:05;20.30;71.00
9762;DHT22;4920;49.594;11.022;2023-04-30T11:48:37;20.30;66.30
9762;DHT22;4920;49.594;11.022;2023-04-30T11:51:14;20.40;67.80
9762;DHT22;4920;49.594;11.022;2023-04-30T11:53:45;20.50;64.50
9762;DHT22;4920;49.594;11.022;2023-04-30T11:56:17;20.70;65.00
9762;DHT22;4920;49.594;11.022;2023-04-30T11:58:47;21.10;64.70
9762;DHT22;4920;49.594;11.022;2023-04-30T12:01:17;21.30;63.00
9762;DHT22;4920;49.594;11.022;2023-04-30T12:03:49;21.30;63.90
9762;DHT22;4920;49.594;11.022;2023-04-30T12:06:23;21.40;63.90
9762;DHT22;4920;49.594;11.022;2023-04-30T12:08:52;21.70;64.50
9762;DHT22;4920;49.594;11.022;2023-04-30T12:11:23;21.90;63.20
9762;DHT22;4920;49.594;11.022;2023-04-30T12:13:54;22.20;61.80
9762;DHT22;4920;49.594;11.022;2023-04-30T12:16:23;22.30;62.10
9762;DHT22;4920;49.594;11.022;2023-04-30T12:18:54;22.70;63.50
9762;DHT22;4920;49.594;11.022;2023-04-30T12:21:23;23.10;60.10
9762;DHT22;4920;49.594;11.022;2023-04-30T12:23:51;23.10;59.90
9762;DHT22;4920;49.594;11.022;2023-04-30T12:26:20;23.00;58.80
9762;DHT22;4920;49.594;11.022;2023-04-30T12:28:51;22.90;58.30
9762;DHT22;4920;49.594;11.022;2023-04-30T12:31:19;22.80;58.30
9762;DHT22;4920;49.594;11.022;2023-04-30T12:33:56;22.60;59.90
9762;DHT22;4920;49.594;11.022;2023-04-30T12:36:31;22.20;58.60
9762;DHT22;4920;49.594;11.022;2023-04-30T12:39:06;21.80;59.70
9762;DHT22;4920;49.594;11.022;2023-04-30T12:41:38;21.30;58.70
9762;DHT22;4920;49.594;11.022;2023-04-30T12:44:15;20.80;59.80
9762;DHT22;4920;49.594;11.022;2023-04-30T12:46:44;20.50;60.40
9762;DHT22;4920;49.594;11.022;2023-04-30T12:49:26;20.10;61.50
9762;DHT22;4920;49.594;11.022;2023-04-30T12:51:59;19.90;61.50
9762;DHT22;4920;49.594;11.022;2023-04-30T12:54:29;20.10;62.70
9762;DHT22;4920;49.594;11.022;2023-04-30T12:57:00;20.30;61.80
9762;DHT22;4920;49.594;11.022;2023-04-30T12:59:30;20.40;60.80
9762;DHT22;4920;49.594;11.022;2023-04-30T13:02:09;20.00;60.60
9762;DHT22;4920;49.594;11.022;2023-04-30T13:04:41;19.90;62.60
9762;DHT22;4920;49.594;11.022;2023-04-30T13:07:10;19.90;63.40
9762;DHT22;4920;49.594;11.022;2023-04-30T13:09:38;19.80;63.20
9762;DHT22;4920;49.594;11.022;2023-04-30T13:12:07;19.90;63.40
9762;DHT22;4920;49.594;11.022;2023-04-30T13:14:36;19.90;62.40
9762;DHT22;4920;49.594;11.022;2023-04-30T13:17:05;19.80;61.90
9762;DHT22;4920;49.594;11.022;2023-04-30T13:19:36;19.70;61.40
9762;DHT22;4920;49.594;11.022;2023-04-30T13:22:06;19.70;62.40
9762;DHT22;4920;49.594;11.022;2023-04-30T13:24:34;19.80;63.10
9762;DHT22;4920;49.594;11.022;2023-04-30T13:27:03;19.80;62.80
9762;DHT22;4920;49.594;11.022;2023-04-30T13:29:32;19.90;61.60
9762;DHT22;4920;49.594;11.022;2023-04-30T13:32:01;19.90;60.50
9762;DHT22;4920;49.594;11.022;2023-04-30T13:34:30;19.90;61.10
9762;DHT22;4920;49.594;11.022;2023-04-30T13:36:59;20.00;60.70
9762;DHT22;4920;49.594;11.022;2023-04-30T13:39:29;20.10;61.30
9762;DHT22;4920;49.594;11.022;2023-04-30T13:41:57;20.40;60.80
9762;DHT22;4920;49.594;11.022;2023-04-30T13:44:27;20.70;59.40
9762;DHT22;4920;49.594;11.022;2023-04-30T13:46:58;21.10;59.40
9762;DHT22;4920;49.594;11.022;2023-04-30T13:49:27;21.30;59.40
9762;DHT22;4920;49.594;11.022;2023-04-30T13:51:56;21.70;58.20
9762;DHT22;4920;49.594;11.022;2023-04-30T13:54:25;22.10;57.80
9762;DHT22;4920;49.594;11.022;2023-04-30T13:56:55;22.60;56.90
9762;DHT22;4920;49.594;11.022;2023-04-30T13:59:25;23.00;55.60
9762;DHT22;4920;49.594;11.022;2023-04-30T14:01:55;23.20;55.00
9762;DHT22;4920;49.594;11.022;2023-04-30T14:04:23;23.40;54.90
9762;DHT22;4920;49.594;11.022;2023-04-30T14:06:52;23.60;55.10
9762;DHT22;4920;49.594;11.022;2023-04-30T14:09:22;23.50;55.00
9762;DHT22;4920;49.594;11.022;2023-04-30T14:11:51;23.00;55.70
9762;DHT22;4920;49.594;11.022;2023-04-30T14:14:23;22.70;56.00
9762;DHT22;4920;49.594;11.022;2023-04-30T14:16:52;22.20;55.50
9762;DHT22;4920;49.594;11.022;2023-04-30T14:19:21;21.80;56.40
9762;DHT22;4920;49.594;11.022;2023-04-30T14:21:50;21.70;54.00
9762;DHT22;4920;49.594;11.022;2023-04-30T14:24:18;21.40;55.10
9762;DHT22;4920;49.594;11.022;2023-04-30T14:26:47;21.10;54.80
9762;DHT22;4920;49.594;11.022;2023-04-30T14:29:16;20.90;56.30
9762;DHT22;4920;49.594;11.022;2023-04-30T14:31:49;20.80;56.70
9762;DHT22;4920;49.594;11.022;2023-04-30T14:34:18;20.70;56.10
9762;DHT22;4920;49.594;11.022;2023-04-30T14:36:47;20.50;56.50
9762;DHT22;4920;49.594;11.022;2023-04-30T14:39:15;20.50;57.20
9762;DHT22;4920;49.594;11.022;2023-04-30T14:41:44;20.30;57.00
9762;DHT22;4920;49.594;11.022;2023-04-30T14:44:13;20.30;57.10
9762;DHT22;4920;49.594;11.022;2023-04-30T14:46:41;20.40;57.10
9762;DHT22;4920;49.594;11.022;2023-04-30T14:49:12;20.50;56.50
9762;DHT22;4920;49.594;11.022;2023-04-30T14:51:40;20.50;57.20
9762;DHT22;4920;49.594;11.022;2023-04-30T14:54:09;20.50;57.20
9762;DHT22;4920;49.594;11.022;2023-04-30T14:56:38;20.40;56.50
9762;DHT22;4920;49.594;11.022;2023-04-30T14:59:07;20.50;56.70
9762;DHT22;4920;49.594;11.022;2023-04-30T15:01:35;20.60;57.00
9762;DHT22;4920;49.594;11.022;2023-04-30T15:04:04;20.60;56.60
9762;DHT22;4920;49.594;11.022;2023-04-30T15:06:35;20.70;56.60
9762;DHT22;4920;49.594;11.022;2023-04-30T15:09:04;20.40;58.00
9762;DHT22;4920;49.594;11.022;2023-04-30T15:11:33;20.10;58.30
9762;DHT22;4920;49.594;11.022;2023-04-30T15:14:01;19.90;59.10
9762;DHT22;4920;49.594;11.022;2023-04-30T15:16:30;19.60;59.20
9762;DHT22;4920;49.594;11.022;2023-04-30T15:18:59;19.40;60.00
9762;DHT22;4920;49.594;11.022;2023-04-30T15:21:29;19.20;59.90
9762;DHT22;4920;49.594;11.022;2023-04-30T15:24:01;19.20;59.80
9762;DHT22;4920;49.594;11.022;2023-04-30T15:26:30;19.20;59.50
9762;DHT22;4920;49.594;11.022;2023-04-30T15:28:59;19.20;58.90
9762;DHT22;4920;49.594;11.022;2023-04-30T15:31:28;19.20;59.10
9762;DHT22;4920;49.594;11.022;2023-04-30T15:33:59;19.20;58.60
9762;DHT22;4920;49.594;11.022;2023-04-30T15:36:27;19.10;58.60
9762;DHT22;4920;49.594;11.022;2023-04-30T15:38:56;19.20;58.70
9762;DHT22;4920;49.594;11.022;2023-04-30T15:41:26;19.30;58.40
9762;DHT22;4920;49.594;11.022;2023-04-30T15:43:55;19.40;58.90
9762;DHT22;4920;49.594;11.022;2023-04-30T15:46:24;19.50;59.50
9762;DHT22;4920;49.594;11.022;2023-04-30T15:48:53;19.60;59.90
9762;DHT22;4920;49.594;11.022;2023-04-30T15:51:22;19.70;60.30
9762;DHT22;4920;49.594;11.022;2023-04-30T15:53:50;19.90;61.30
9762;DHT22;4920;49.594;11.022;2023-04-30T15:56:20;20.00;60.40
9762;DHT22;4920;49.594;11.022;2023-04-30T15:58:53;20.10;59.50
9762;DHT22;4920;49.594;11.022;2023-04-30T16:01:22;20.00;59.00
9762;DHT22;4920;49.594;11.022;2023-04-30T16:03:51;19.80;60.40
9762;DHT22;4920;49.594;11.022;2023-04-30T16:06:20;19.80;60.90